Time;durP1;ratioP1;P1;durP2;ratioP2;P2;SDS_P1;SDS_P2;PMS_P1;PMS_P2;Temp;Humidity;BMP_temperature;BMP_pressure;BME280_temperature;BME280_humidity;BME280_pressure;Samples;Min_cycle;Max_cycle;Signal;HPM_P1;HPM_P2
2022/09/16 00:00:04;;;;;;;6.53;1.10;;;12.70;84.20;;;;;;5017585;28;20123;-75
2022/09/16 00:02:29;;;;;;;3.97;0.82;;;12.70;83.80;;;;;;5034224;28;20095;-75
2022/09/16 00:04:55;;;;;;;2.60;0.73;;;12.70;83.60;;;;;;5017505;28;20440;-74
2022/09/16 00:07:21;;;;;;;7.15;1.27;;;12.70;83.40;;;;;;5033816;28;20370;-74
2022/09/16 00:09:46;;;;;;;4.20;1.38;;;12.80;83.00;;;;;;5034078;28;20120;-75
2022/09/16 00:12:12;;;;;;;4.43;1.23;;;12.70;83.00;;;;;;5033758;28;20103;-74
2022/09/16 00:14:38;;;;;;;10.57;1.23;;;12.70;83.00;;;;;;5033687;28;20041;-75
2022/09/16 00:17:03;;;;;;;6.60;1.00;;;12.60;83.30;;;;;;5033974;28;20041;-75
2022/09/16 00:19:29;;;;;;;5.60;1.08;;;12.60;83.70;;;;;;5033743;28;20041;-74
2022/09/16 00:21:55;;;;;;;13.93;1.83;;;12.50;83.70;;;;;;5033836;28;20065;-75
2022/09/16 00:24:20;;;;;;;9.02;1.15;;;12.60;83.70;;;;;;5033277;28;20568;-74
2022/09/16 00:26:46;;;;;;;8.10;1.40;;;12.60;83.80;;;;;;5033573;28;20049;-76
2022/09/16 00:29:11;;;;;;;4.65;1.13;;;12.50;83.80;;;;;;5033535;28;20068;-76
2022/09/16 00:31:37;;;;;;;4.78;1.50;;;12.50;84.10;;;;;;5033375;28;20119;-76
2022/09/16 00:34:03;;;;;;;9.65;1.73;;;12.50;84.30;;;;;;5033361;28;20052;-76
2022/09/16 00:36:29;;;;;;;5.45;1.05;;;12.50;84.50;;;;;;5017227;28;20040;-75
2022/09/16 00:38:55;;;;;;;7.43;0.90;;;12.60;84.60;;;;;;5033519;28;20056;-76
2022/09/16 00:41:27;;;;;;;5.25;1.10;;;12.60;85.10;;;;;;5033174;28;20490;-75
2022/09/16 00:43:57;;;;;;;4.07;1.30;;;12.50;85.10;;;;;;5033468;28;20041;-75
2022/09/16 00:46:46;;;;;;;4.68;0.90;;;12.50;85.50;;;;;;5016734;28;20091;-75
2022/09/16 00:49:17;;;;;;;7.07;1.38;;;12.50;85.40;;;;;;5033189;28;20038;-75
2022/09/16 00:51:46;;;;;;;5.25;1.20;;;12.50;85.60;;;;;;5033303;28;20041;-75
2022/09/16 00:54:13;;;;;;;6.97;1.10;;;12.60;85.90;;;;;;5032938;28;20124;-76
2022/09/16 00:56:42;;;;;;;4.03;1.90;;;12.60;85.70;;;;;;5032991;28;20042;-74
2022/09/16 00:59:16;;;;;;;5.68;0.95;;;12.50;85.90;;;;;;5016497;28;20204;-75
2022/09/16 01:01:46;;;;;;;4.90;1.48;;;12.50;85.90;;;;;;5032937;28;20045;-74
2022/09/16 01:04:18;;;;;;;7.57;1.42;;;12.50;86.20;;;;;;5016538;28;20433;-75
2022/09/16 01:06:44;;;;;;;7.85;1.63;;;12.50;86.30;;;;;;5033122;28;20053;-74
2022/09/16 01:09:10;;;;;;;10.88;1.27;;;12.50;86.70;;;;;;5032862;28;20055;-75
2022/09/16 01:11:36;;;;;;;5.60;1.10;;;12.40;86.70;;;;;;5032881;28;20041;-75
2022/09/16 01:16:58;;;;;;;5.22;1.23;;;12.40;87.40;;;;;;5032908;28;20056;-74
2022/09/16 01:19:34;;;;;;;5.75;1.30;;;12.30;87.50;;;;;;5032294;28;20118;-74
2022/09/16 01:22:51;;;;;;;6.28;1.30;;;12.30;87.80;;;;;;5032498;28;20045;-75
2022/09/16 01:25:35;;;;;;;5.70;1.23;;;12.10;88.30;;;;;;4949433;28;20148;-74
2022/09/16 01:28:20;;;;;;;5.55;1.30;;;12.00;88.40;;;;;;4916617;28;20043;-74
2022/09/16 01:30:58;;;;;;;4.20;1.10;;;12.00;88.30;;;;;;4916849;28;20184;-74
2022/09/16 01:33:58;;;;;;;8.32;1.50;;;12.00;88.40;;;;;;4932623;29;20131;-75
2022/09/16 01:36:38;;;;;;;5.47;1.40;;;11.90;88.20;;;;;;4932341;29;20138;-74
2022/09/16 01:39:27;;;;;;;5.38;1.50;;;11.80;88.20;;;;;;4932312;28;20083;-74
2022/09/16 01:42:17;;;;;;;7.90;1.77;;;11.80;88.30;;;;;;4932416;29;20040;-74
2022/09/16 01:45:04;;;;;;;2.67;0.95;;;11.90;88.30;;;;;;4932289;28;20044;-74
2022/09/16 01:48:13;;;;;;;4.82;1.58;;;11.90;88.30;;;;;;4916393;29;20113;-74
2022/09/16 01:51:01;;;;;;;6.78;1.40;;;12.20;86.50;;;;;;4942101;29;20135;-74
2022/09/16 01:53:31;;;;;;;5.32;1.08;;;12.20;85.70;;;;;;4916486;28;20043;-74
2022/09/16 01:56:04;;;;;;;6.47;1.40;;;12.30;85.40;;;;;;4931978;28;20047;-74
2022/09/16 01:58:40;;;;;;;2.50;0.85;;;12.30;84.90;;;;;;4932372;29;20506;-74
2022/09/16 02:01:24;;;;;;;4.20;0.90;;;12.40;84.20;;;;;;4932007;28;20036;-74
2022/09/16 02:03:57;;;;;;;4.22;0.80;;;12.40;84.20;;;;;;4932045;28;20044;-74
2022/09/16 02:06:26;;;;;;;4.07;0.98;;;12.40;83.60;;;;;;4932203;29;20396;-73
2022/09/16 02:09:07;;;;;;;3.08;0.70;;;12.40;82.80;;;;;;4931920;28;20051;-74
2022/09/16 02:11:36;;;;;;;3.42;0.70;;;12.50;82.20;;;;;;4931880;28;20047;-74
2022/09/16 02:14:11;;;;;;;4.57;0.75;;;12.40;82.30;;;;;;4931720;29;20052;-73
2022/09/16 02:16:40;;;;;;;4.20;1.55;;;12.50;81.60;;;;;;4931848;28;20036;-74
2022/09/16 02:19:14;;;;;;;5.43;0.77;;;12.50;81.50;;;;;;4931800;28;20044;-75
2022/09/16 02:21:40;;;;;;;8.07;2.03;;;12.60;81.20;;;;;;4931982;29;20169;-74
2022/09/16 02:24:13;;;;;;;6.35;1.17;;;12.60;81.10;;;;;;5003691;28;20061;-74
2022/09/16 02:26:46;;;;;;;5.25;0.90;;;12.60;81.30;;;;;;5031677;28;20041;-74
2022/09/16 02:29:20;;;;;;;8.18;1.63;;;12.60;81.80;;;;;;5031889;28;20084;-74
2022/09/16 02:31:46;;;;;;;;;;;12.50;82.30;;;;;;5034845;28;20115;-74
2022/09/16 02:34:40;;;;;;;5.90;0.85;;;12.50;82.80;;;;;;5035602;28;19917;-74
2022/09/16 02:37:19;;;;;;;6.53;1.33;;;12.40;82.90;;;;;;5035059;28;20133;-74
2022/09/16 02:39:48;;;;;;;4.15;1.08;;;12.30;83.20;;;;;;5035543;28;20083;-74
2022/09/16 02:42:15;;;;;;;9.63;2.72;;;12.30;83.60;;;;;;5035651;28;20123;-75
2022/09/16 02:44:42;;;;;;;5.25;1.13;;;12.40;83.80;;;;;;5035426;28;20102;-75
2022/09/16 02:47:14;;;;;;;8.10;1.17;;;12.50;83.40;;;;;;5035679;28;20050;-74
2022/09/16 02:49:54;;;;;;;6.95;1.15;;;12.50;83.40;;;;;;5035465;28;20053;-74
2022/09/16 02:52:36;;;;;;;5.85;1.35;;;12.50;83.60;;;;;;5035193;28;20486;-74
2022/09/16 02:55:23;;;;;;;6.03;1.90;;;12.40;83.20;;;;;;5035246;28;20575;-74
2022/09/16 02:57:50;;;;;;;9.77;1.48;;;12.30;83.20;;;;;;5035513;28;20045;-74
2022/09/16 03:00:16;;;;;;;5.90;1.20;;;12.30;83.40;;;;;;5035163;28;20045;-74
2022/09/16 03:02:41;;;;;;;7.95;1.77;;;12.20;83.60;;;;;;5035020;28;20048;-74
2022/09/16 03:05:08;;;;;;;11.05;2.00;;;12.10;83.80;;;;;;5035073;28;20123;-74
2022/09/16 03:07:35;;;;;;;8.38;1.52;;;12.10;83.90;;;;;;5035050;28;20460;-74
2022/09/16 03:10:01;;;;;;;7.20;1.38;;;12.20;83.60;;;;;;5035042;28;20162;-74
2022/09/16 03:12:49;;;;;;;6.55;1.35;;;12.10;83.60;;;;;;5034876;28;20053;-74
2022/09/16 03:15:29;;;;;;;6.45;1.13;;;12.10;83.20;;;;;;5034763;28;20037;-74
2022/09/16 03:18:39;;;;;;;5.25;1.10;;;12.10;83.10;;;;;;5034909;28;20120;-74
2022/09/16 03:21:07;;;;;;;6.53;1.35;;;12.10;82.70;;;;;;5035032;28;20389;-74
2022/09/16 03:23:33;;;;;;;6.53;1.50;;;12.20;82.00;;;;;;5034679;28;20406;-74
2022/09/16 03:26:07;;;;;;;7.18;1.92;;;12.30;81.60;;;;;;5018238;28;20045;-74
2022/09/16 03:28:40;;;;;;;9.40;1.30;;;12.30;81.60;;;;;;5034719;28;20129;-74
2022/09/16 03:31:31;;;;;;;7.18;1.70;;;12.20;82.00;;;;;;5018066;28;20044;-74
2022/09/16 03:34:22;;;;;;;11.95;2.65;;;12.10;82.30;;;;;;5011082;28;20050;-74
2022/09/16 03:37:18;;;;;;;8.13;1.80;;;12.10;82.40;;;;;;5034799;28;20444;-74
2022/09/16 03:39:54;;;;;;;18.48;2.17;;;12.10;82.70;;;;;;5022091;28;20058;-74
2022/09/16 03:42:20;;;;;;;6.68;1.35;;;12.00;82.90;;;;;;5033792;28;20188;-74
2022/09/16 03:44:46;;;;;;;9.45;1.60;;;12.00;83.00;;;;;;5034429;28;20077;-74
2022/09/16 03:47:11;;;;;;;9.52;2.13;;;12.10;83.10;;;;;;5034333;28;20041;-74
2022/09/16 03:49:37;;;;;;;10.88;2.08;;;12.00;83.10;;;;;;5034331;28;20037;-75
2022/09/16 03:52:04;;;;;;;11.02;2.55;;;12.10;83.00;;;;;;5018000;28;20099;-74
2022/09/16 03:54:31;;;;;;;8.43;1.80;;;12.10;82.90;;;;;;5034183;28;20056;-74
2022/09/16 03:56:57;;;;;;;7.47;1.90;;;12.10;82.50;;;;;;5034085;28;20124;-74
2022/09/16 03:59:22;;;;;;;9.95;1.50;;;12.20;82.20;;;;;;5034083;28;20536;-74
2022/09/16 04:01:48;;;;;;;10.77;2.15;;;12.20;81.60;;;;;;5034010;28;20461;-74
2022/09/16 04:04:14;;;;;;;11.30;1.83;;;12.20;81.20;;;;;;5034036;28;20044;-74
2022/09/16 04:06:40;;;;;;;8.32;1.90;;;12.20;81.10;;;;;;5033954;28;20120;-74
2022/09/16 04:09:07;;;;;;;14.00;3.05;;;12.30;80.60;;;;;;5017513;28;20124;-74
2022/09/16 04:11:33;;;;;;;7.43;1.70;;;12.30;80.10;;;;;;5033730;28;20041;-74
2022/09/16 04:14:00;;;;;;;11.20;1.42;;;12.30;80.00;;;;;;5034047;28;20370;-74
2022/09/16 04:16:26;;;;;;;7.55;1.65;;;12.40;79.50;;;;;;5017323;28;20385;-74
2022/09/16 04:18:52;;;;;;;10.15;2.13;;;12.30;79.00;;;;;;5033745;28;20047;-74
2022/09/16 04:21:18;;;;;;;9.75;2.38;;;12.40;78.20;;;;;;5033904;28;20428;-74
2022/09/16 04:23:44;;;;;;;10.13;2.28;;;12.40;77.90;;;;;;5033504;28;20103;-74
2022/09/16 04:26:10;;;;;;;9.60;2.00;;;12.40;77.60;;;;;;5033897;28;20052;-74
2022/09/16 04:28:35;;;;;;;6.32;1.77;;;12.30;77.60;;;;;;5033593;28;20085;-74
2022/09/16 04:31:03;;;;;;;12.95;1.83;;;12.30;77.40;;;;;;5033471;28;20135;-74
2022/09/16 04:33:30;;;;;;;11.10;2.33;;;12.30;77.00;;;;;;5033476;28;20497;-74
2022/09/16 04:36:11;;;;;;;7.93;1.40;;;12.20;77.20;;;;;;5033399;28;20049;-74
2022/09/16 04:38:38;;;;;;;5.40;1.58;;;12.10;77.10;;;;;;5033595;28;20041;-74
2022/09/16 04:41:09;;;;;;;12.35;1.38;;;12.10;76.30;;;;;;5033207;28;20045;-74
2022/09/16 04:43:36;;;;;;;10.57;2.08;;;12.00;76.40;;;;;;5033302;28;20045;-74
2022/09/16 04:46:02;;;;;;;6.45;1.42;;;12.00;76.50;;;;;;5033485;28;20198;-74
2022/09/16 04:48:29;;;;;;;8.25;1.85;;;12.00;76.40;;;;;;5033182;28;20049;-74
2022/09/16 04:51:10;;;;;;;7.32;1.40;;;11.90;76.60;;;;;;5033093;28;20046;-73
2022/09/16 04:53:38;;;;;;;6.90;1.00;;;11.80;76.50;;;;;;5032464;28;20056;-73
2022/09/16 04:56:08;;;;;;;5.88;1.40;;;11.80;76.60;;;;;;5033030;28;20045;-73
2022/09/16 04:58:35;;;;;;;11.73;1.38;;;11.70;76.80;;;;;;5033128;28;20088;-73
2022/09/16 05:01:14;;;;;;;7.32;1.48;;;11.70;76.90;;;;;;5033245;28;20394;-74
2022/09/16 05:03:41;;;;;;;10.25;2.13;;;11.70;76.90;;;;;;5033183;28;20430;-74
2022/09/16 05:06:15;;;;;;;6.38;1.85;;;11.80;76.20;;;;;;5033029;28;20045;-74
2022/09/16 05:08:41;;;;;;;;;;;11.80;76.10;;;;;;5033431;28;20076;-74
2022/09/16 05:11:13;;;;;;;8.75;1.67;;;11.90;76.60;;;;;;5032397;28;20459;-74
2022/09/16 05:13:39;;;;;;;12.80;1.75;;;12.00;77.20;;;;;;5032708;28;20045;-74
2022/09/16 05:16:10;;;;;;;7.47;1.63;;;12.00;77.60;;;;;;5032468;28;20049;-74
2022/09/16 05:18:37;;;;;;;10.18;1.63;;;12.20;77.90;;;;;;5032614;28;20046;-73
2022/09/16 05:21:05;;;;;;;7.15;1.60;;;12.20;78.20;;;;;;5032759;28;20057;-74
2022/09/16 05:23:31;;;;;;;7.70;1.92;;;12.20;78.70;;;;;;5032328;28;20096;-74
2022/09/16 05:26:05;;;;;;;10.18;1.33;;;12.30;78.40;;;;;;5033067;28;20163;-74
2022/09/16 05:28:32;;;;;;;5.55;1.67;;;12.30;78.30;;;;;;5032769;28;20402;-73
2022/09/16 05:31:18;;;;;;;7.45;1.73;;;12.30;78.40;;;;;;5032411;28;20041;-74
2022/09/16 05:34:04;;;;;;;6.15;1.40;;;12.40;77.70;;;;;;5032447;28;20129;-73
2022/09/16 05:36:32;;;;;;;7.65;1.67;;;12.50;77.10;;;;;;5031977;28;20061;-73
2022/09/16 05:38:58;;;;;;;9.27;1.83;;;12.50;76.90;;;;;;5032313;28;20048;-73
2022/09/16 05:41:24;;;;;;;11.25;2.50;;;12.50;77.10;;;;;;5032115;28;20041;-73
2022/09/16 05:43:50;;;;;;;7.88;1.33;;;12.50;77.10;;;;;;5032747;28;20412;-73
2022/09/16 05:46:23;;;;;;;7.90;1.70;;;12.60;77.30;;;;;;5032296;28;20219;-72
2022/09/16 05:48:49;;;;;;;7.80;1.65;;;12.50;77.30;;;;;;5032451;28;20052;-73
2022/09/16 05:51:18;;;;;;;7.40;1.38;;;12.50;77.60;;;;;;5032042;28;20478;-73
2022/09/16 05:53:45;;;;;;;8.95;1.50;;;12.50;77.70;;;;;;5015622;28;20120;-73
2022/09/16 05:56:13;;;;;;;5.50;1.40;;;12.40;78.10;;;;;;5032039;28;20371;-74
2022/09/16 05:58:39;;;;;;;6.25;2.47;;;12.40;78.50;;;;;;5032053;28;20124;-73
2022/09/16 06:01:17;;;;;;;8.77;1.65;;;12.40;78.50;;;;;;5015429;28;20041;-73
2022/09/16 06:03:44;;;;;;;5.78;1.90;;;12.30;78.50;;;;;;5015539;28;20045;-73
2022/09/16 06:06:25;;;;;;;10.43;2.55;;;12.30;78.20;;;;;;5031709;28;20056;-73
2022/09/16 06:08:59;;;;;;;8.75;1.45;;;12.40;78.50;;;;;;5031910;28;20508;-74
2022/09/16 06:11:26;;;;;;;7.22;1.67;;;12.40;78.20;;;;;;5031981;28;20056;-73
2022/09/16 06:14:00;;;;;;;6.43;1.92;;;12.50;77.90;;;;;;5031818;28;20048;-73
2022/09/16 06:16:27;;;;;;;7.25;1.52;;;12.50;77.90;;;;;;5030991;28;20060;-73
2022/09/16 06:18:54;;;;;;;8.77;1.30;;;12.50;77.90;;;;;;5038001;28;20573;-73
2022/09/16 06:21:21;;;;;;;9.63;1.98;;;12.60;77.70;;;;;;5036910;28;20044;-74
2022/09/16 06:23:47;;;;;;;5.93;1.35;;;12.70;77.20;;;;;;5031957;28;20501;-72
2022/09/16 06:26:16;;;;;;;10.00;2.13;;;12.80;76.80;;;;;;5016143;28;20066;-73
2022/09/16 06:28:43;;;;;;;9.48;1.80;;;12.90;77.00;;;;;;5037542;28;20048;-73
2022/09/16 06:31:18;;;;;;;4.03;1.33;;;13.00;77.00;;;;;;5029275;28;20041;-74
2022/09/16 06:33:44;;;;;;;9.20;1.50;;;13.10;77.10;;;;;;5034202;28;20395;-73
2022/09/16 06:36:16;;;;;;;9.40;2.13;;;13.10;77.20;;;;;;5032086;28;20513;-73
2022/09/16 06:38:43;;;;;;;11.68;2.33;;;13.10;77.40;;;;;;5033023;28;20489;-73
2022/09/16 06:41:10;;;;;;;7.40;1.90;;;13.10;77.00;;;;;;5032238;28;20045;-73
2022/09/16 06:43:36;;;;;;;8.35;2.33;;;13.30;77.10;;;;;;5037419;28;20045;-74
2022/09/16 06:46:09;;;;;;;6.38;2.22;;;13.20;77.40;;;;;;5014893;28;20092;-74
2022/09/16 06:48:34;;;;;;;9.27;1.60;;;13.20;77.80;;;;;;5038823;28;20045;-72
2022/09/16 06:51:02;;;;;;;7.30;1.58;;;13.20;78.10;;;;;;5032944;28;20049;-73
2022/09/16 06:53:28;;;;;;;12.88;2.22;;;13.30;78.30;;;;;;5020113;28;20067;-73
2022/09/16 06:55:54;;;;;;;9.02;1.60;;;13.30;78.10;;;;;;5029758;28;20124;-73
2022/09/16 06:58:20;;;;;;;9.65;1.85;;;13.30;78.00;;;;;;5030405;28;20383;-74
2022/09/16 07:00:49;;;;;;;6.28;2.17;;;13.40;77.90;;;;;;5033125;28;20052;-74
2022/09/16 07:03:15;;;;;;;5.95;1.40;;;13.40;76.60;;;;;;5034692;28;20041;-73
2022/09/16 07:05:41;;;;;;;8.50;1.42;;;13.50;75.60;;;;;;5032996;28;20045;-74
2022/09/16 07:08:07;;;;;;;6.28;1.48;;;13.50;74.20;;;;;;5031405;28;20049;-74
2022/09/16 07:10:32;;;;;;;9.05;1.65;;;13.60;73.90;;;;;;5032805;28;20099;-73
2022/09/16 07:12:58;;;;;;;6.05;1.92;;;13.70;73.10;;;;;;5035471;28;20045;-73
2022/09/16 07:15:24;;;;;;;7.28;1.48;;;13.70;73.60;;;;;;5036623;28;20041;-74
2022/09/16 07:17:54;;;;;;;5.78;1.80;;;13.80;73.60;;;;;;5024087;28;20123;-73
2022/09/16 07:20:19;;;;;;;7.38;1.25;;;13.80;73.50;;;;;;5026007;28;20560;-73
2022/09/16 07:22:49;;;;;;;8.07;1.55;;;14.00;73.20;;;;;;5031570;28;20046;-73
2022/09/16 07:25:15;;;;;;;12.85;1.52;;;14.00;73.10;;;;;;5007710;28;20138;-74
2022/09/16 07:27:41;;;;;;;8.20;1.95;;;14.10;73.60;;;;;;5024512;28;20062;-73
2022/09/16 07:30:07;;;;;;;9.48;1.63;;;14.30;73.30;;;;;;5008210;28;20051;-73
2022/09/16 07:32:33;;;;;;;9.15;1.98;;;14.40;72.60;;;;;;5018372;28;20412;-73
2022/09/16 07:34:58;;;;;;;8.27;1.70;;;14.50;72.50;;;;;;5019113;28;20399;-73
2022/09/16 07:37:24;;;;;;;11.98;2.00;;;14.50;72.30;;;;;;5021474;28;20229;-73
2022/09/16 07:39:50;;;;;;;11.02;2.08;;;14.50;72.20;;;;;;5011278;28;20129;-73
2022/09/16 07:42:15;;;;;;;8.15;1.67;;;14.50;72.80;;;;;;5026094;28;20035;-73
2022/09/16 07:44:41;;;;;;;18.50;3.13;;;14.50;72.90;;;;;;5012616;28;20051;-73
2022/09/16 07:47:07;;;;;;;11.10;3.10;;;14.40;73.80;;;;;;5027360;28;20057;-73
2022/09/16 07:49:32;;;;;;;10.10;2.30;;;14.30;74.50;;;;;;5017939;28;20055;-73
2022/09/16 07:51:59;;;;;;;10.23;2.47;;;14.20;74.70;;;;;;5022798;28;20069;-73
2022/09/16 07:54:24;;;;;;;8.43;1.83;;;14.20;74.40;;;;;;5018021;28;20055;-73
2022/09/16 07:56:50;;;;;;;10.18;2.08;;;14.30;73.90;;;;;;5021471;28;20051;-73
2022/09/16 07:59:18;;;;;;;6.15;1.30;;;14.30;73.10;;;;;;5025111;28;20043;-73
2022/09/16 08:01:43;;;;;;;15.52;2.88;;;14.30;72.30;;;;;;5024553;28;20123;-73
2022/09/16 08:04:09;;;;;;;20.42;2.90;;;14.30;71.60;;;;;;5026308;28;20446;-72
2022/09/16 08:06:38;;;;;;;8.50;1.95;;;14.30;71.70;;;;;;5029083;28;20039;-73
2022/09/16 08:09:04;;;;;;;11.38;1.90;;;14.50;69.60;;;;;;5025497;28;20057;-74
2022/09/16 08:11:30;;;;;;;7.60;1.92;;;14.50;68.60;;;;;;5020710;28;20163;-74
2022/09/16 08:13:59;;;;;;;8.82;1.50;;;14.60;67.20;;;;;;5023980;28;20154;-73
2022/09/16 08:16:25;;;;;;;6.88;1.40;;;14.80;65.70;;;;;;5020209;28;20074;-73
2022/09/16 08:18:54;;;;;;;8.93;2.38;;;14.80;64.70;;;;;;5027060;28;20050;-73
2022/09/16 08:21:22;;;;;;;8.70;1.40;;;14.90;62.50;;;;;;5019259;28;20084;-73
2022/09/16 08:23:48;;;;;;;5.95;1.55;;;15.00;63.20;;;;;;5028529;28;20069;-73
2022/09/16 08:26:15;;;;;;;8.38;2.15;;;15.10;61.60;;;;;;5026595;28;20049;-74
2022/09/16 08:28:43;;;;;;;7.25;1.25;;;15.20;60.60;;;;;;5030613;28;20065;-73
2022/09/16 08:31:09;;;;;;;6.28;1.67;;;15.30;61.30;;;;;;5039621;28;20054;-73
2022/09/16 08:33:37;;;;;;;6.78;1.38;;;15.40;61.70;;;;;;5039851;28;20046;-73
2022/09/16 08:36:10;;;;;;;10.30;1.65;;;15.50;61.70;;;;;;5039924;28;20104;-74
2022/09/16 08:38:36;;;;;;;7.70;1.70;;;15.50;62.00;;;;;;5039819;28;20046;-74
2022/09/16 08:41:20;;;;;;;5.07;1.67;;;15.60;62.00;;;;;;5039790;28;20047;-75
2022/09/16 08:43:49;;;;;;;5.47;1.80;;;15.70;61.80;;;;;;5039911;28;20401;-74
2022/09/16 08:46:40;;;;;;;6.85;2.13;;;15.70;61.10;;;;;;5039746;28;20057;-74
2022/09/16 08:49:12;;;;;;;9.60;1.80;;;15.80;61.20;;;;;;5022137;28;20135;-73
2022/09/16 08:51:38;;;;;;;7.97;1.73;;;15.80;61.80;;;;;;5039386;28;20042;-73
2022/09/16 08:54:11;;;;;;;9.70;2.20;;;15.80;62.60;;;;;;5039546;28;20057;-73
2022/09/16 08:56:38;;;;;;;5.90;1.70;;;15.90;61.80;;;;;;5039828;28;20434;-72
2022/09/16 08:59:12;;;;;;;7.90;1.38;;;16.00;60.00;;;;;;4960574;28;20783;-73
2022/09/16 09:01:48;;;;;;;8.52;1.80;;;16.00;58.70;;;;;;5018754;28;20046;-73
2022/09/16 09:04:14;;;;;;;6.00;1.40;;;16.00;59.10;;;;;;5028140;28;20437;-74
2022/09/16 09:06:53;;;;;;;8.02;1.80;;;16.10;59.50;;;;;;5028044;28;20062;-73
2022/09/16 09:09:40;;;;;;;4.75;1.45;;;16.20;57.40;;;;;;5013663;28;20046;-74
2022/09/16 09:12:21;;;;;;;6.10;1.08;;;16.30;57.20;;;;;;5039117;28;20491;-73
2022/09/16 09:15:07;;;;;;;6.95;2.00;;;16.40;57.50;;;;;;5039150;28;20047;-74
2022/09/16 09:17:47;;;;;;;6.55;2.17;;;16.40;58.30;;;;;;5022332;28;20112;-74
2022/09/16 09:20:54;;;;;;;11.80;2.85;;;16.40;58.90;;;;;;5038964;28;20074;-74
2022/09/16 09:23:28;;;;;;;9.40;1.48;;;16.20;60.60;;;;;;5038596;28;20058;-72
2022/09/16 09:26:23;;;;;;;13.02;2.33;;;16.10;64.90;;;;;;5022433;28;20441;-72
2022/09/16 09:29:03;;;;;;;8.07;1.92;;;15.90;66.20;;;;;;5038710;28;20057;-74
2022/09/16 09:31:39;;;;;;;7.70;1.58;;;15.40;67.10;;;;;;5038577;28;20043;-73
2022/09/16 09:34:13;;;;;;;9.73;2.65;;;15.10;67.10;;;;;;5038733;28;20055;-73
2022/09/16 09:36:50;;;;;;;9.83;2.10;;;14.90;69.20;;;;;;5038611;28;20072;-73
2022/09/16 09:39:48;;;;;;;8.65;1.67;;;15.00;69.90;;;;;;5038368;28;20634;-73
2022/09/16 09:42:23;;;;;;;6.95;1.83;;;15.10;69.60;;;;;;5034506;28;20058;-73
2022/09/16 09:45:02;;;;;;;9.57;2.10;;;15.30;68.30;;;;;;5038726;28;20053;-72
2022/09/16 09:48:19;;;;;;;9.32;2.70;;;15.60;68.90;;;;;;5038783;28;20050;-73
2022/09/16 09:50:47;;;;;;;6.72;1.25;;;15.80;65.90;;;;;;4975377;28;20537;-73
2022/09/16 09:53:28;;;;;;;5.88;1.30;;;16.00;65.00;;;;;;5023180;28;20090;-74
2022/09/16 09:56:03;;;;;;;3.47;0.80;;;16.20;59.90;;;;;;5038296;28;20092;-73
2022/09/16 09:58:52;;;;;;;8.05;1.30;;;16.30;56.60;;;;;;5038404;28;20046;-73
2022/09/16 10:01:18;;;;;;;5.82;1.55;;;16.50;58.20;;;;;;5038530;28;20488;-73
2022/09/16 10:03:44;;;;;;;5.47;1.45;;;16.50;60.00;;;;;;5038417;28;20073;-73
2022/09/16 10:06:11;;;;;;;9.52;1.40;;;16.60;61.90;;;;;;5038507;28;20050;-73
2022/09/16 10:08:46;;;;;;;8.63;1.77;;;16.60;58.90;;;;;;5037938;28;20495;-73
2022/09/16 10:11:26;;;;;;;8.13;2.08;;;16.60;60.50;;;;;;5038094;28;20522;-73
2022/09/16 10:13:57;;;;;;;9.00;1.63;;;16.80;61.80;;;;;;5038329;28;20442;-74
2022/09/16 10:16:38;;;;;;;5.65;1.75;;;16.70;60.00;;;;;;5037957;28;20077;-74
2022/09/16 10:19:18;;;;;;;3.90;0.75;;;16.70;59.70;;;;;;5038174;28;20035;-73
2022/09/16 10:22:06;;;;;;;5.65;1.23;;;16.70;57.40;;;;;;5037919;28;20047;-73
2022/09/16 10:24:33;;;;;;;7.10;1.65;;;16.70;58.60;;;;;;5021323;28;20070;-73
2022/09/16 10:27:02;;;;;;;7.20;1.83;;;16.70;59.20;;;;;;5037839;28;20047;-73
2022/09/16 10:29:28;;;;;;;6.07;1.63;;;16.80;59.30;;;;;;5038275;28;20057;-73
2022/09/16 10:31:54;;;;;;;2.40;1.13;;;17.00;59.90;;;;;;5037905;28;20043;-73
2022/09/16 10:34:36;;;;;;;6.95;1.02;;;17.00;58.90;;;;;;5038012;28;20109;-74
2022/09/16 10:37:11;;;;;;;5.68;2.53;;;16.90;58.40;;;;;;5038287;28;20130;-73
2022/09/16 10:39:43;;;;;;;7.88;1.63;;;17.00;61.10;;;;;;5021258;28;20039;-73
2022/09/16 10:42:35;;;;;;;6.30;1.90;;;17.00;60.40;;;;;;5037870;28;20043;-74
2022/09/16 10:45:28;;;;;;;6.05;1.55;;;17.00;60.40;;;;;;5034395;28;20086;-73
2022/09/16 10:48:00;;;;;;;4.18;1.30;;;17.10;61.00;;;;;;5037132;28;20133;-74
2022/09/16 10:50:26;;;;;;;9.30;2.22;;;17.10;59.70;;;;;;5037623;28;20078;-74
2022/09/16 10:52:53;;;;;;;8.23;1.35;;;16.90;59.60;;;;;;5040401;28;20074;-73
2022/09/16 10:55:29;;;;;;;6.93;1.30;;;16.90;58.90;;;;;;5041501;28;20043;-74
2022/09/16 10:58:18;;;;;;;5.40;1.20;;;17.00;59.90;;;;;;5041733;28;20039;-73
2022/09/16 11:01:06;;;;;;;7.72;1.20;;;17.10;58.00;;;;;;5031176;28;20097;-74
2022/09/16 11:03:52;;;;;;;4.63;1.58;;;17.30;59.30;;;;;;5041568;28;20491;-74
2022/09/16 11:06:39;;;;;;;5.38;1.10;;;17.40;59.40;;;;;;5041531;28;20051;-73
2022/09/16 11:09:14;;;;;;;5.32;0.95;;;17.50;59.60;;;;;;5041536;28;20149;-74
2022/09/16 11:12:12;;;;;;;7.07;2.35;;;17.50;59.10;;;;;;5041299;28;20510;-73
2022/09/16 11:14:54;;;;;;;6.90;0.82;;;17.50;58.20;;;;;;5041250;28;20050;-74
2022/09/16 11:17:25;;;;;;;8.70;1.17;;;17.50;58.00;;;;;;5041422;28;20043;-73
2022/09/16 11:20:28;;;;;;;3.88;1.33;;;17.70;58.40;;;;;;5041369;28;20046;-74
2022/09/16 11:23:13;;;;;;;5.63;1.90;;;17.50;61.70;;;;;;5040946;28;20130;-73
2022/09/16 11:25:54;;;;;;;7.07;1.55;;;16.90;63.60;;;;;;5041358;28;20047;-74
2022/09/16 11:28:51;;;;;;;4.85;1.20;;;16.70;62.70;;;;;;5040971;28;20569;-73
2022/09/16 11:31:29;;;;;;;10.27;1.85;;;16.80;60.20;;;;;;5004018;28;20054;-73
2022/09/16 11:34:14;;;;;;;6.45;1.23;;;16.90;61.30;;;;;;5041280;28;20046;-74
2022/09/16 11:36:43;;;;;;;8.35;1.50;;;17.10;60.60;;;;;;5040780;28;20058;-73
2022/09/16 11:39:15;;;;;;;8.15;1.80;;;17.30;57.80;;;;;;5040897;28;20624;-75
2022/09/16 11:41:49;;;;;;;5.80;1.75;;;17.40;55.30;;;;;;5040678;28;20153;-74
2022/09/16 11:44:49;;;;;;;8.10;1.95;;;17.50;56.10;;;;;;5041118;28;20371;-74
2022/09/16 11:47:33;;;;;;;4.72;1.40;;;17.60;56.50;;;;;;5024253;28;20070;-73
2022/09/16 11:50:39;;;;;;;7.25;1.70;;;17.60;54.30;;;;;;5023971;28;20039;-74
2022/09/16 11:53:23;;;;;;;6.28;1.55;;;17.60;53.10;;;;;;5040415;28;20092;-74
2022/09/16 11:56:19;;;;;;;5.90;1.15;;;17.70;54.90;;;;;;5023932;28;20043;-73
2022/09/16 11:58:50;;;;;;;6.25;1.30;;;17.50;56.80;;;;;;5039965;28;20219;-74
2022/09/16 12:01:41;;;;;;;6.78;1.10;;;17.30;59.30;;;;;;5040703;28;20391;-74
2022/09/16 12:04:25;;;;;;;12.98;2.00;;;17.00;58.90;;;;;;5040153;28;20156;-75
2022/09/16 12:07:17;;;;;;;8.75;2.20;;;16.90;56.80;;;;;;5040518;28;20724;-74
2022/09/16 12:09:42;;;;;;;8.95;2.08;;;17.10;55.90;;;;;;5036319;28;20510;-75
2022/09/16 12:12:16;;;;;;;6.97;1.50;;;17.40;55.40;;;;;;5040112;28;20067;-75
2022/09/16 12:14:48;;;;;;;11.30;2.83;;;17.70;55.90;;;;;;5040070;28;20051;-73
2022/09/16 12:17:40;;;;;;;8.68;2.08;;;17.70;55.00;;;;;;5040332;28;20049;-74
2022/09/16 12:20:19;;;;;;;7.00;1.45;;;17.60;56.10;;;;;;5039297;28;20514;-74
2022/09/16 12:22:54;;;;;;;10.25;2.00;;;17.70;55.70;;;;;;5039753;28;20046;-74
2022/09/16 12:25:46;;;;;;;4.88;1.15;;;17.70;56.10;;;;;;5039883;28;20047;-73
2022/09/16 12:28:18;;;;;;;6.53;1.55;;;17.70;55.80;;;;;;5009599;28;20099;-74
2022/09/16 12:30:47;;;;;;;11.40;1.27;;;17.60;57.20;;;;;;5039874;28;20043;-73
2022/09/16 12:33:20;;;;;;;13.25;2.47;;;17.50;58.20;;;;;;5040209;28;20054;-74
2022/09/16 12:35:51;;;;;;;12.68;2.33;;;17.20;59.80;;;;;;5039878;28;20039;-73
2022/09/16 12:38:19;;;;;;;5.30;1.73;;;17.10;61.30;;;;;;5040001;28;20047;-74
2022/09/16 12:41:16;;;;;;;6.00;1.58;;;17.00;60.50;;;;;;5039780;28;20050;-74
2022/09/16 12:44:04;;;;;;;12.88;3.35;;;16.70;61.80;;;;;;5039845;28;20514;-73
2022/09/16 12:46:51;;;;;;;7.30;2.00;;;16.60;62.80;;;;;;5039607;28;20121;-73
2022/09/16 12:50:18;;;;;;;10.18;2.30;;;16.60;64.70;;;;;;5039596;28;20046;-73
2022/09/16 12:53:30;;;;;;;11.07;2.88;;;16.70;64.80;;;;;;4976417;28;20053;-74
2022/09/16 12:56:22;;;;;;;9.23;3.33;;;16.60;64.90;;;;;;4957885;28;20158;-73
2022/09/16 12:58:53;;;;;;;11.13;2.00;;;16.80;64.30;;;;;;5036186;28;20093;-73
2022/09/16 13:01:26;;;;;;;8.25;2.30;;;16.90;62.80;;;;;;5039292;28;20172;-74
2022/09/16 13:04:13;;;;;;;5.65;1.80;;;17.00;60.10;;;;;;5039508;28;20047;-73
2022/09/16 13:06:48;;;;;;;11.75;1.80;;;17.10;58.30;;;;;;5022894;28;20043;-74
2022/09/16 13:09:32;;;;;;;9.20;2.05;;;17.30;56.50;;;;;;5039440;28;20054;-74
2022/09/16 13:12:06;;;;;;;7.75;2.33;;;17.30;56.30;;;;;;5039249;28;20051;-74
2022/09/16 13:14:53;;;;;;;14.73;2.33;;;17.20;59.10;;;;;;5038312;28;20054;-74
2022/09/16 13:17:34;;;;;;;10.75;3.15;;;17.00;60.70;;;;;;5029258;28;20054;-75
2022/09/16 13:20:21;;;;;;;10.27;2.85;;;16.70;62.90;;;;;;5022307;28;20579;-73
2022/09/16 13:23:03;;;;;;;10.57;2.28;;;16.50;63.30;;;;;;5038821;28;20076;-74